sensor_id;sensor_type;location;lat;lon;timestamp;pressure;altitude;pressure_sealevel;temperature;humidity
4469;BME280;2247;42.666;23.292;2024-03-02T00:02:48;93761.56;;;10.84;68.41
4469;BME280;2247;42.666;23.292;2024-03-02T00:05:18;93816.91;;;10.84;69.03
4469;BME280;2247;42.666;23.292;2024-03-02T00:07:47;93820.47;;;10.75;69.33
4469;BME280;2247;42.666;23.292;2024-03-02T00:10:21;93808.16;;;10.70;69.67
4469;BME280;2247;42.666;23.292;2024-03-02T00:12:51;93760.38;;;10.39;69.81
4469;BME280;2247;42.666;23.292;2024-03-02T00:15:34;93798.88;;;10.73;69.91
4469;BME280;2247;42.666;23.292;2024-03-02T00:18:09;93790.84;;;10.83;69.71
4469;BME280;2247;42.666;23.292;2024-03-02T00:20:38;93789.19;;;10.87;69.08
4469;BME280;2247;42.666;23.292;2024-03-02T00:23:06;93797.53;;;10.94;68.86
4469;BME280;2247;42.666;23.292;2024-03-02T00:25:40;93788.59;;;11.09;68.74
4469;BME280;2247;42.666;23.292;2024-03-02T00:28:14;93801.31;;;11.20;68.27
4469;BME280;2247;42.666;23.292;2024-03-02T00:30:59;93789.22;;;11.19;68.06
4469;BME280;2247;42.666;23.292;2024-03-02T00:33:31;93792.78;;;11.42;67.48
4469;BME280;2247;42.666;23.292;2024-03-02T00:35:58;93793.31;;;11.58;67.28
4469;BME280;2247;42.666;23.292;2024-03-02T00:38:27;93774.06;;;11.57;66.51
4469;BME280;2247;42.666;23.292;2024-03-02T00:40:54;93786.19;;;11.72;66.43
4469;BME280;2247;42.666;23.292;2024-03-02T00:43:43;93788.47;;;11.78;66.14
4469;BME280;2247;42.666;23.292;2024-03-02T00:46:15;93777.63;;;11.80;65.42
4469;BME280;2247;42.666;23.292;2024-03-02T00:48:48;93779.78;;;11.78;65.55
4469;BME280;2247;42.666;23.292;2024-03-02T00:51:18;93775.88;;;11.89;65.33
4469;BME280;2247;42.666;23.292;2024-03-02T00:53:45;93778.69;;;11.93;65.22
4469;BME280;2247;42.666;23.292;2024-03-02T00:56:12;93777.22;;;12.00;65.60
4469;BME280;2247;42.666;23.292;2024-03-02T00:58:39;93777.63;;;12.07;64.85
4469;BME280;2247;42.666;23.292;2024-03-02T01:01:06;93785.16;;;12.14;64.93
4469;BME280;2247;42.666;23.292;2024-03-02T01:03:33;93781.16;;;12.16;64.39
4469;BME280;2247;42.666;23.292;2024-03-02T01:06:02;93769.41;;;12.22;64.71
4469;BME280;2247;42.666;23.292;2024-03-02T01:08:30;93783.84;;;12.39;64.25
4469;BME280;2247;42.666;23.292;2024-03-02T01:10:57;93778.34;;;12.49;64.29
4469;BME280;2247;42.666;23.292;2024-03-02T01:13:24;93781.25;;;12.61;63.73
4469;BME280;2247;42.666;23.292;2024-03-02T01:15:53;93780.06;;;12.67;63.92
4469;BME280;2247;42.666;23.292;2024-03-02T01:18:20;93777.31;;;12.72;63.37
4469;BME280;2247;42.666;23.292;2024-03-02T01:20:47;93777.06;;;12.82;62.86
4469;BME280;2247;42.666;23.292;2024-03-02T01:23:18;93758.94;;;12.89;63.00
4469;BME280;2247;42.666;23.292;2024-03-02T01:25:46;93747.41;;;12.85;63.09
4469;BME280;2247;42.666;23.292;2024-03-02T01:28:13;93754.91;;;12.92;62.63
4469;BME280;2247;42.666;23.292;2024-03-02T01:30:40;93755.88;;;12.96;62.43
4469;BME280;2247;42.666;23.292;2024-03-02T01:33:07;93752.63;;;12.99;62.54
4469;BME280;2247;42.666;23.292;2024-03-02T01:35:35;93751.22;;;13.01;62.27
4469;BME280;2247;42.666;23.292;2024-03-02T01:38:03;93758.09;;;13.02;62.40
4469;BME280;2247;42.666;23.292;2024-03-02T01:40:33;93741.56;;;12.97;62.38
4469;BME280;2247;42.666;23.292;2024-03-02T01:43:00;93746.84;;;12.97;62.76
4469;BME280;2247;42.666;23.292;2024-03-02T01:45:28;93762.28;;;13.03;62.87
4469;BME280;2247;42.666;23.292;2024-03-02T01:47:57;93756.41;;;13.07;62.42
4469;BME280;2247;42.666;23.292;2024-03-02T01:50:25;93751.13;;;13.07;62.38
4469;BME280;2247;42.666;23.292;2024-03-02T01:52:53;93743.66;;;13.09;61.65
4469;BME280;2247;42.666;23.292;2024-03-02T01:55:20;93739.94;;;13.10;61.71
4469;BME280;2247;42.666;23.292;2024-03-02T01:57:48;93747.47;;;13.16;62.11
4469;BME280;2247;42.666;23.292;2024-03-02T02:00:18;93746.69;;;13.16;61.21
4469;BME280;2247;42.666;23.292;2024-03-02T02:02:45;93746.50;;;13.12;61.63
4469;BME280;2247;42.666;23.292;2024-03-02T02:05:12;93746.00;;;13.10;61.59
4469;BME280;2247;42.666;23.292;2024-03-02T02:07:40;93740.41;;;13.12;61.70
4469;BME280;2247;42.666;23.292;2024-03-02T02:10:08;93742.09;;;13.08;61.97
4469;BME280;2247;42.666;23.292;2024-03-02T02:12:35;93753.66;;;13.12;61.67
4469;BME280;2247;42.666;23.292;2024-03-02T02:15:04;93734.47;;;13.06;62.30
4469;BME280;2247;42.666;23.292;2024-03-02T02:17:48;93747.31;;;13.13;62.18
4469;BME280;2247;42.666;23.292;2024-03-02T02:20:15;93747.56;;;13.11;62.25
4469;BME280;2247;42.666;23.292;2024-03-02T02:22:55;93751.38;;;13.19;61.74
4469;BME280;2247;42.666;23.292;2024-03-02T02:25:22;93736.31;;;13.28;61.77
4469;BME280;2247;42.666;23.292;2024-03-02T02:27:49;93743.19;;;13.29;61.84
4469;BME280;2247;42.666;23.292;2024-03-02T02:30:19;93747.88;;;13.32;61.17
4469;BME280;2247;42.666;23.292;2024-03-02T02:32:46;93745.22;;;13.32;61.45
4469;BME280;2247;42.666;23.292;2024-03-02T02:35:13;93739.22;;;13.40;61.09
4469;BME280;2247;42.666;23.292;2024-03-02T02:37:41;93732.22;;;13.44;60.58
4469;BME280;2247;42.666;23.292;2024-03-02T02:40:11;93743.53;;;13.36;60.82
4469;BME280;2247;42.666;23.292;2024-03-02T02:42:39;93751.00;;;13.34;61.07
4469;BME280;2247;42.666;23.292;2024-03-02T02:45:07;93747.88;;;13.32;61.73
4469;BME280;2247;42.666;23.292;2024-03-02T02:47:34;93754.13;;;13.36;61.11
4469;BME280;2247;42.666;23.292;2024-03-02T02:50:02;93750.88;;;13.39;60.87
4469;BME280;2247;42.666;23.292;2024-03-02T02:52:32;93750.09;;;13.38;60.77
4469;BME280;2247;42.666;23.292;2024-03-02T02:55:03;93753.66;;;13.34;61.15
4469;BME280;2247;42.666;23.292;2024-03-02T02:57:32;93732.13;;;13.27;61.08
4469;BME280;2247;42.666;23.292;2024-03-02T03:00:04;93742.31;;;13.42;60.34
4469;BME280;2247;42.666;23.292;2024-03-02T03:02:36;93745.94;;;13.46;60.89
4469;BME280;2247;42.666;23.292;2024-03-02T03:05:04;93744.84;;;13.47;60.38
4469;BME280;2247;42.666;23.292;2024-03-02T03:07:32;93752.44;;;13.40;60.55
4469;BME280;2247;42.666;23.292;2024-03-02T03:09:59;93752.53;;;13.35;60.63
4469;BME280;2247;42.666;23.292;2024-03-02T03:12:26;93753.66;;;13.34;60.76
4469;BME280;2247;42.666;23.292;2024-03-02T03:14:54;93756.91;;;13.31;61.11
4469;BME280;2247;42.666;23.292;2024-03-02T03:17:21;93751.94;;;13.38;61.26
4469;BME280;2247;42.666;23.292;2024-03-02T03:19:49;93741.38;;;13.38;61.15
4469;BME280;2247;42.666;23.292;2024-03-02T03:22:16;93751.78;;;13.34;61.36
4469;BME280;2247;42.666;23.292;2024-03-02T03:24:43;93752.09;;;13.33;61.37
4469;BME280;2247;42.666;23.292;2024-03-02T03:27:10;93748.47;;;13.29;62.23
4469;BME280;2247;42.666;23.292;2024-03-02T03:29:37;93747.03;;;13.23;62.80
4469;BME280;2247;42.666;23.292;2024-03-02T03:32:06;93751.25;;;13.24;62.92
4469;BME280;2247;42.666;23.292;2024-03-02T03:34:33;93752.03;;;13.24;62.89
4469;BME280;2247;42.666;23.292;2024-03-02T03:37:00;93758.69;;;13.22;63.09
4469;BME280;2247;42.666;23.292;2024-03-02T03:39:27;93748.13;;;13.22;62.74
4469;BME280;2247;42.666;23.292;2024-03-02T03:41:55;93754.03;;;13.19;62.80
4469;BME280;2247;42.666;23.292;2024-03-02T03:44:22;93752.16;;;13.19;62.72
4469;BME280;2247;42.666;23.292;2024-03-02T03:46:49;93752.75;;;13.16;62.87
4469;BME280;2247;42.666;23.292;2024-03-02T03:49:17;93762.25;;;13.17;62.77
4469;BME280;2247;42.666;23.292;2024-03-02T03:51:44;93751.69;;;13.17;62.85
4469;BME280;2247;42.666;23.292;2024-03-02T03:54:11;93757.75;;;13.18;63.07
4469;BME280;2247;42.666;23.292;2024-03-02T03:56:38;93749.94;;;13.13;63.26
4469;BME280;2247;42.666;23.292;2024-03-02T03:59:05;93747.75;;;13.15;62.90
4469;BME280;2247;42.666;23.292;2024-03-02T04:01:31;93745.00;;;13.20;63.19
4469;BME280;2247;42.666;23.292;2024-03-02T04:03:59;93745.59;;;13.17;63.17
4469;BME280;2247;42.666;23.292;2024-03-02T04:06:29;93750.31;;;13.20;63.35
4469;BME280;2247;42.666;23.292;2024-03-02T04:08:56;93743.16;;;13.20;63.22
4469;BME280;2247;42.666;23.292;2024-03-02T04:11:23;93746.38;;;13.17;63.58
4469;BME280;2247;42.666;23.292;2024-03-02T04:13:50;93750.72;;;13.13;63.16
4469;BME280;2247;42.666;23.292;2024-03-02T04:16:17;93741.69;;;13.14;63.72
4469;BME280;2247;42.666;23.292;2024-03-02T04:18:44;93750.91;;;13.17;63.67
4469;BME280;2247;42.666;23.292;2024-03-02T04:21:11;93741.38;;;13.16;63.28
4469;BME280;2247;42.666;23.292;2024-03-02T04:23:39;93744.81;;;13.16;63.65
4469;BME280;2247;42.666;23.292;2024-03-02T04:26:06;93746.69;;;13.16;63.68
4469;BME280;2247;42.666;23.292;2024-03-02T04:28:33;93745.13;;;13.15;63.88
4469;BME280;2247;42.666;23.292;2024-03-02T04:31:00;93738.19;;;13.05;63.60
4469;BME280;2247;42.666;23.292;2024-03-02T04:33:27;93750.16;;;13.25;63.13
4469;BME280;2247;42.666;23.292;2024-03-02T04:35:54;93759.06;;;13.29;63.65
4469;BME280;2247;42.666;23.292;2024-03-02T04:38:21;93756.09;;;13.30;63.53
4469;BME280;2247;42.666;23.292;2024-03-02T04:40:49;93759.06;;;13.29;63.59
4469;BME280;2247;42.666;23.292;2024-03-02T04:43:16;93764.69;;;13.36;63.59
4469;BME280;2247;42.666;23.292;2024-03-02T04:45:44;93762.38;;;13.34;63.03
4469;BME280;2247;42.666;23.292;2024-03-02T04:48:11;93759.69;;;13.26;63.04
4469;BME280;2247;42.666;23.292;2024-03-02T04:50:38;93762.03;;;13.27;63.44
4469;BME280;2247;42.666;23.292;2024-03-02T04:53:05;93758.19;;;13.42;63.40
4469;BME280;2247;42.666;23.292;2024-03-02T04:55:32;93766.13;;;13.42;63.93
4469;BME280;2247;42.666;23.292;2024-03-02T04:58:30;93766.75;;;13.39;63.54
4469;BME280;2247;42.666;23.292;2024-03-02T05:00:57;93763.31;;;13.38;63.48
4469;BME280;2247;42.666;23.292;2024-03-02T05:03:24;93767.84;;;13.38;63.83
4469;BME280;2247;42.666;23.292;2024-03-02T05:05:51;93760.03;;;13.33;63.75
4469;BME280;2247;42.666;23.292;2024-03-02T05:08:18;93765.31;;;13.33;63.94
4469;BME280;2247;42.666;23.292;2024-03-02T05:10:45;93767.47;;;13.31;64.39
4469;BME280;2247;42.666;23.292;2024-03-02T05:13:12;93767.47;;;13.31;63.88
4469;BME280;2247;42.666;23.292;2024-03-02T05:15:39;93776.50;;;13.30;64.12
4469;BME280;2247;42.666;23.292;2024-03-02T05:18:06;93772.91;;;13.26;64.24
4469;BME280;2247;42.666;23.292;2024-03-02T05:20:33;93774.69;;;13.17;64.64
4469;BME280;2247;42.666;23.292;2024-03-02T05:23:00;93780.53;;;13.05;64.61
4469;BME280;2247;42.666;23.292;2024-03-02T05:25:27;93751.22;;;12.79;65.22
4469;BME280;2247;42.666;23.292;2024-03-02T05:27:54;93786.66;;;12.92;65.66
4469;BME280;2247;42.666;23.292;2024-03-02T05:30:22;93781.66;;;12.90;65.72
4469;BME280;2247;42.666;23.292;2024-03-02T05:32:53;93793.13;;;12.86;66.32
4469;BME280;2247;42.666;23.292;2024-03-02T05:35:20;93792.75;;;12.79;66.60
4469;BME280;2247;42.666;23.292;2024-03-02T05:37:47;93791.78;;;12.75;67.20
4469;BME280;2247;42.666;23.292;2024-03-02T05:40:15;93793.19;;;12.72;66.91
4469;BME280;2247;42.666;23.292;2024-03-02T05:42:42;93799.41;;;12.76;66.88
4469;BME280;2247;42.666;23.292;2024-03-02T05:45:09;93801.00;;;12.77;66.97
4469;BME280;2247;42.666;23.292;2024-03-02T05:47:36;93796.66;;;12.81;66.70
4469;BME280;2247;42.666;23.292;2024-03-02T05:50:06;93800.88;;;12.82;67.06
4469;BME280;2247;42.666;23.292;2024-03-02T05:52:33;93809.28;;;12.84;67.03
4469;BME280;2247;42.666;23.292;2024-03-02T05:55:00;93810.25;;;12.88;67.12
4469;BME280;2247;42.666;23.292;2024-03-02T05:57:27;93811.22;;;12.92;66.86
4469;BME280;2247;42.666;23.292;2024-03-02T06:00:11;93809.38;;;12.93;66.51
4469;BME280;2247;42.666;23.292;2024-03-02T06:02:39;93814.81;;;12.96;66.49
4469;BME280;2247;42.666;23.292;2024-03-02T06:05:07;93811.09;;;12.97;66.68
4469;BME280;2247;42.666;23.292;2024-03-02T06:07:34;93810.97;;;13.02;66.13
4469;BME280;2247;42.666;23.292;2024-03-02T06:10:01;93808.22;;;13.08;65.86
4469;BME280;2247;42.666;23.292;2024-03-02T06:12:30;93802.63;;;13.09;65.89
4469;BME280;2247;42.666;23.292;2024-03-02T06:14:57;93805.09;;;13.06;65.69
4469;BME280;2247;42.666;23.292;2024-03-02T06:17:24;93813.69;;;13.11;65.85
4469;BME280;2247;42.666;23.292;2024-03-02T06:19:51;93813.44;;;13.13;65.67
4469;BME280;2247;42.666;23.292;2024-03-02T06:22:19;93805.38;;;13.18;66.19
4469;BME280;2247;42.666;23.292;2024-03-02T06:24:48;93796.94;;;13.16;65.99
4469;BME280;2247;42.666;23.292;2024-03-02T06:27:15;93809.31;;;13.29;65.70
4469;BME280;2247;42.666;23.292;2024-03-02T06:29:42;93817.47;;;13.32;65.76
4469;BME280;2247;42.666;23.292;2024-03-02T06:32:09;93819.19;;;13.37;65.57
4469;BME280;2247;42.666;23.292;2024-03-02T06:34:36;93810.75;;;13.35;65.44
4469;BME280;2247;42.666;23.292;2024-03-02T06:37:02;93823.56;;;13.41;65.43
4469;BME280;2247;42.666;23.292;2024-03-02T06:39:32;93824.97;;;13.39;65.36
4469;BME280;2247;42.666;23.292;2024-03-02T06:41:59;93813.78;;;13.42;65.24
4469;BME280;2247;42.666;23.292;2024-03-02T06:44:26;93823.63;;;13.50;65.36
4469;BME280;2247;42.666;23.292;2024-03-02T06:46:53;93827.19;;;13.46;65.04
4469;BME280;2247;42.666;23.292;2024-03-02T06:49:20;93821.72;;;13.42;65.32
4469;BME280;2247;42.666;23.292;2024-03-02T06:51:47;93827.91;;;13.37;65.38
4469;BME280;2247;42.666;23.292;2024-03-02T06:54:15;93824.97;;;13.39;65.28
4469;BME280;2247;42.666;23.292;2024-03-02T06:56:43;93832.41;;;13.37;64.98
4469;BME280;2247;42.666;23.292;2024-03-02T06:59:10;93842.53;;;13.35;64.81
4469;BME280;2247;42.666;23.292;2024-03-02T07:01:37;93836.69;;;13.24;64.95
4469;BME280;2247;42.666;23.292;2024-03-02T07:04:04;93840.84;;;13.17;65.06
4469;BME280;2247;42.666;23.292;2024-03-02T07:06:31;93831.63;;;13.14;65.49
4469;BME280;2247;42.666;23.292;2024-03-02T07:08:58;93837.13;;;13.18;65.38
4469;BME280;2247;42.666;23.292;2024-03-02T07:11:25;93832.91;;;13.17;65.43
4469;BME280;2247;42.666;23.292;2024-03-02T07:13:53;93834.88;;;13.11;65.82
4469;BME280;2247;42.666;23.292;2024-03-02T07:16:20;93842.00;;;13.11;66.33
4469;BME280;2247;42.666;23.292;2024-03-02T07:18:58;93835.28;;;13.05;66.18
4469;BME280;2247;42.666;23.292;2024-03-02T07:21:27;93835.44;;;13.08;66.33
4469;BME280;2247;42.666;23.292;2024-03-02T07:23:54;93849.72;;;13.21;66.12
4469;BME280;2247;42.666;23.292;2024-03-02T07:26:21;93843.38;;;13.22;65.66
4469;BME280;2247;42.666;23.292;2024-03-02T07:28:48;93826.69;;;13.21;65.87
4469;BME280;2247;42.666;23.292;2024-03-02T07:31:17;93847.78;;;13.26;65.73
4469;BME280;2247;42.666;23.292;2024-03-02T07:33:44;93847.56;;;13.23;65.75
4469;BME280;2247;42.666;23.292;2024-03-02T07:36:12;93842.78;;;13.25;65.88
4469;BME280;2247;42.666;23.292;2024-03-02T07:38:39;93851.78;;;13.24;65.49
4469;BME280;2247;42.666;23.292;2024-03-02T07:41:07;93853.34;;;13.25;65.68
4469;BME280;2247;42.666;23.292;2024-03-02T07:43:34;93855.72;;;13.26;65.37
4469;BME280;2247;42.666;23.292;2024-03-02T07:46:01;93860.69;;;13.28;65.01
4469;BME280;2247;42.666;23.292;2024-03-02T07:48:30;93849.44;;;13.22;64.72
4469;BME280;2247;42.666;23.292;2024-03-02T07:50:57;93851.31;;;13.22;65.17
4469;BME280;2247;42.666;23.292;2024-03-02T07:53:24;93857.09;;;13.24;65.60
4469;BME280;2247;42.666;23.292;2024-03-02T07:55:51;93865.59;;;13.21;66.03
4469;BME280;2247;42.666;23.292;2024-03-02T07:58:18;93863.44;;;13.23;65.74
4469;BME280;2247;42.666;23.292;2024-03-02T08:00:47;93854.31;;;13.29;65.76
4469;BME280;2247;42.666;23.292;2024-03-02T08:03:14;93864.47;;;13.35;65.58
4469;BME280;2247;42.666;23.292;2024-03-02T08:05:42;93864.00;;;13.33;65.09
4469;BME280;2247;42.666;23.292;2024-03-02T08:08:11;93867.53;;;13.29;65.49
4469;BME280;2247;42.666;23.292;2024-03-02T08:10:38;93864.91;;;13.29;65.88
4469;BME280;2247;42.666;23.292;2024-03-02T08:13:05;93874.69;;;13.28;66.05
4469;BME280;2247;42.666;23.292;2024-03-02T08:15:32;93874.53;;;13.25;66.52
4469;BME280;2247;42.666;23.292;2024-03-02T08:17:59;93870.44;;;13.19;66.53
4469;BME280;2247;42.666;23.292;2024-03-02T08:20:26;93872.97;;;13.10;66.65
4469;BME280;2247;42.666;23.292;2024-03-02T08:22:54;93865.94;;;13.06;66.70
4469;BME280;2247;42.666;23.292;2024-03-02T08:25:21;93864.16;;;13.01;66.77
4469;BME280;2247;42.666;23.292;2024-03-02T08:27:48;93870.06;;;12.98;67.45
4469;BME280;2247;42.666;23.292;2024-03-02T08:30:15;93864.78;;;12.98;67.68
4469;BME280;2247;42.666;23.292;2024-03-02T08:32:43;93858.72;;;12.97;67.25
4469;BME280;2247;42.666;23.292;2024-03-02T08:35:10;93870.47;;;12.91;67.28
4469;BME280;2247;42.666;23.292;2024-03-02T08:37:39;93870.00;;;12.89;67.62
4469;BME280;2247;42.666;23.292;2024-03-02T08:40:08;93866.38;;;12.85;66.95
4469;BME280;2247;42.666;23.292;2024-03-02T08:42:36;93860.09;;;12.81;66.99
4469;BME280;2247;42.666;23.292;2024-03-02T08:45:03;93865.28;;;12.86;67.42
4469;BME280;2247;42.666;23.292;2024-03-02T08:47:31;93862.34;;;12.88;67.36
4469;BME280;2247;42.666;23.292;2024-03-02T08:49:59;93871.44;;;12.95;67.24
4469;BME280;2247;42.666;23.292;2024-03-02T08:52:26;93873.97;;;13.00;66.83
4469;BME280;2247;42.666;23.292;2024-03-02T08:54:55;93863.59;;;13.04;67.42
4469;BME280;2247;42.666;23.292;2024-03-02T08:57:23;93865.25;;;13.14;66.70
4469;BME280;2247;42.666;23.292;2024-03-02T08:59:50;93861.59;;;13.23;67.04
4469;BME280;2247;42.666;23.292;2024-03-02T09:02:17;93862.94;;;13.34;66.58
4469;BME280;2247;42.666;23.292;2024-03-02T09:04:44;93873.56;;;13.43;66.02
4469;BME280;2247;42.666;23.292;2024-03-02T09:07:11;93859.19;;;13.35;65.18
4469;BME280;2247;42.666;23.292;2024-03-02T09:09:38;93862.50;;;13.41;65.34
4469;BME280;2247;42.666;23.292;2024-03-02T09:12:05;93854.59;;;13.50;65.48
4469;BME280;2247;42.666;23.292;2024-03-02T09:14:35;93876.63;;;13.59;65.19
4469;BME280;2247;42.666;23.292;2024-03-02T09:17:02;93878.84;;;13.65;65.32
4469;BME280;2247;42.666;23.292;2024-03-02T09:19:29;93883.22;;;13.61;64.50
4469;BME280;2247;42.666;23.292;2024-03-02T09:21:56;93884.09;;;13.57;64.41
4469;BME280;2247;42.666;23.292;2024-03-02T09:24:24;93885.38;;;13.59;64.52
4469;BME280;2247;42.666;23.292;2024-03-02T09:26:51;93881.38;;;13.70;64.01
4469;BME280;2247;42.666;23.292;2024-03-02T09:29:18;93880.16;;;13.76;64.42
4469;BME280;2247;42.666;23.292;2024-03-02T09:31:47;93878.63;;;13.75;64.85
4469;BME280;2247;42.666;23.292;2024-03-02T09:34:15;93882.72;;;13.82;64.05
4469;BME280;2247;42.666;23.292;2024-03-02T09:36:42;93889.44;;;13.88;63.68
4469;BME280;2247;42.666;23.292;2024-03-02T09:39:09;93881.97;;;13.90;63.53
4469;BME280;2247;42.666;23.292;2024-03-02T09:41:36;93887.72;;;13.92;63.06
4469;BME280;2247;42.666;23.292;2024-03-02T09:44:04;93883.41;;;13.96;62.69
4469;BME280;2247;42.666;23.292;2024-03-02T09:46:31;93881.41;;;14.01;62.58
4469;BME280;2247;42.666;23.292;2024-03-02T09:49:00;93872.91;;;13.91;63.09
4469;BME280;2247;42.666;23.292;2024-03-02T09:51:27;93889.84;;;14.03;63.45
4469;BME280;2247;42.666;23.292;2024-03-02T09:53:55;93884.22;;;14.05;62.90
4469;BME280;2247;42.666;23.292;2024-03-02T09:56:22;93883.13;;;14.06;63.02
4469;BME280;2247;42.666;23.292;2024-03-02T09:58:49;93896.13;;;14.16;62.77
4469;BME280;2247;42.666;23.292;2024-03-02T10:01:17;93882.41;;;14.14;62.03
4469;BME280;2247;42.666;23.292;2024-03-02T10:03:44;93889.25;;;14.15;62.08
4469;BME280;2247;42.666;23.292;2024-03-02T10:06:24;93882.88;;;14.16;61.81
4469;BME280;2247;42.666;23.292;2024-03-02T10:08:51;93883.81;;;14.20;62.17
4469;BME280;2247;42.666;23.292;2024-03-02T10:11:28;93879.84;;;14.31;62.49
4469;BME280;2247;42.666;23.292;2024-03-02T10:14:06;93880.25;;;14.25;62.86
4469;BME280;2247;42.666;23.292;2024-03-02T10:16:38;93878.88;;;14.27;62.68
4469;BME280;2247;42.666;23.292;2024-03-02T10:19:18;93886.34;;;14.25;63.28
4469;BME280;2247;42.666;23.292;2024-03-02T10:21:47;93890.09;;;14.24;62.95
4469;BME280;2247;42.666;23.292;2024-03-02T10:24:16;93873.53;;;14.18;62.64
4469;BME280;2247;42.666;23.292;2024-03-02T10:26:43;93887.56;;;14.19;63.47
4469;BME280;2247;42.666;23.292;2024-03-02T10:29:10;93889.75;;;14.17;63.82
4469;BME280;2247;42.666;23.292;2024-03-02T10:31:37;93879.88;;;14.09;63.71
4469;BME280;2247;42.666;23.292;2024-03-02T10:34:05;93873.81;;;14.08;63.82
4469;BME280;2247;42.666;23.292;2024-03-02T10:36:33;93877.50;;;13.99;63.83
4469;BME280;2247;42.666;23.292;2024-03-02T10:39:03;93887.00;;;14.00;63.74
4469;BME280;2247;42.666;23.292;2024-03-02T10:41:32;93886.22;;;13.99;63.47
4469;BME280;2247;42.666;23.292;2024-03-02T10:44:02;93874.97;;;13.94;63.70
4469;BME280;2247;42.666;23.292;2024-03-02T10:46:30;93885.44;;;13.99;63.91
4469;BME280;2247;42.666;23.292;2024-03-02T10:48:58;93858.72;;;13.87;63.71
4469;BME280;2247;42.666;23.292;2024-03-02T10:51:25;93871.84;;;13.92;64.46
4469;BME280;2247;42.666;23.292;2024-03-02T10:53:53;93870.94;;;13.96;64.95
4469;BME280;2247;42.666;23.292;2024-03-02T10:56:29;93867.38;;;14.01;64.91
4469;BME280;2247;42.666;23.292;2024-03-02T10:59:03;93873.16;;;14.03;64.64
4469;BME280;2247;42.666;23.292;2024-03-02T11:01:32;93874.28;;;14.10;64.17
4469;BME280;2247;42.666;23.292;2024-03-02T11:04:01;93860.38;;;14.05;64.70
4469;BME280;2247;42.666;23.292;2024-03-02T11:06:29;93866.09;;;13.98;64.81
4469;BME280;2247;42.666;23.292;2024-03-02T11:09:00;93864.03;;;13.87;64.14
4469;BME280;2247;42.666;23.292;2024-03-02T11:11:37;93863.44;;;13.90;63.33
4469;BME280;2247;42.666;23.292;2024-03-02T11:14:07;93832.78;;;13.66;63.82
4469;BME280;2247;42.666;23.292;2024-03-02T11:16:36;93859.69;;;13.91;64.89
4469;BME280;2247;42.666;23.292;2024-03-02T11:19:05;93860.31;;;13.88;64.84
4469;BME280;2247;42.666;23.292;2024-03-02T11:21:33;93808.38;;;13.47;65.63
4469;BME280;2247;42.666;23.292;2024-03-02T11:24:01;93855.56;;;13.76;65.93
4469;BME280;2247;42.666;23.292;2024-03-02T11:26:49;93838.00;;;13.58;65.10
4469;BME280;2247;42.666;23.292;2024-03-02T11:29:42;93850.69;;;13.69;65.33
4469;BME280;2247;42.666;23.292;2024-03-02T11:32:14;93844.22;;;13.53;65.86
4469;BME280;2247;42.666;23.292;2024-03-02T11:34:42;93849.31;;;13.72;66.18
4469;BME280;2247;42.666;23.292;2024-03-02T11:37:12;93817.44;;;13.55;65.20
4469;BME280;2247;42.666;23.292;2024-03-02T11:39:40;93852.00;;;13.80;65.28
4469;BME280;2247;42.666;23.292;2024-03-02T11:42:09;93848.09;;;13.78;65.35
4469;BME280;2247;42.666;23.292;2024-03-02T11:44:36;93850.38;;;13.71;65.89
4469;BME280;2247;42.666;23.292;2024-03-02T11:47:06;93855.69;;;13.71;66.01
4469;BME280;2247;42.666;23.292;2024-03-02T11:49:37;93853.03;;;13.71;65.14
4469;BME280;2247;42.666;23.292;2024-03-02T11:52:06;93846.94;;;13.70;64.97
4469;BME280;2247;42.666;23.292;2024-03-02T11:54:35;93841.19;;;13.68;64.44
4469;BME280;2247;42.666;23.292;2024-03-02T11:57:05;93856.09;;;13.87;64.47
4469;BME280;2247;42.666;23.292;2024-03-02T11:59:34;93853.13;;;13.88;64.82
4469;BME280;2247;42.666;23.292;2024-03-02T12:02:01;93857.16;;;13.86;64.82
4469;BME280;2247;42.666;23.292;2024-03-02T12:04:29;93851.09;;;13.85;65.12
4469;BME280;2247;42.666;23.292;2024-03-02T12:06:57;93845.78;;;13.85;64.80
4469;BME280;2247;42.666;23.292;2024-03-02T12:09:26;93850.31;;;13.85;65.30
4469;BME280;2247;42.666;23.292;2024-03-02T12:12:06;93855.59;;;13.85;65.56
4469;BME280;2247;42.666;23.292;2024-03-02T12:14:35;93848.78;;;13.92;65.15
4469;BME280;2247;42.666;23.292;2024-03-02T12:17:03;93853.16;;;13.97;65.53
4469;BME280;2247;42.666;23.292;2024-03-02T12:19:32;93858.00;;;13.95;65.57
4469;BME280;2247;42.666;23.292;2024-03-02T12:21:59;93858.13;;;13.90;65.70
4469;BME280;2247;42.666;23.292;2024-03-02T12:24:28;93857.94;;;13.86;66.39
4469;BME280;2247;42.666;23.292;2024-03-02T12:26:55;93854.38;;;13.91;66.32
4469;BME280;2247;42.666;23.292;2024-03-02T12:29:23;93856.13;;;13.95;66.26
4469;BME280;2247;42.666;23.292;2024-03-02T12:31:52;93853.50;;;14.04;66.09
4469;BME280;2247;42.666;23.292;2024-03-02T12:34:20;93853.22;;;14.05;65.28
4469;BME280;2247;42.666;23.292;2024-03-02T12:36:49;93866.16;;;14.07;65.48
4469;BME280;2247;42.666;23.292;2024-03-02T12:39:18;93843.41;;;14.06;64.54
4469;BME280;2247;42.666;23.292;2024-03-02T12:41:46;93846.38;;;14.13;64.52
4469;BME280;2247;42.666;23.292;2024-03-02T12:44:16;93864.00;;;14.09;64.51
4469;BME280;2247;42.666;23.292;2024-03-02T12:46:43;93851.97;;;14.11;65.02
4469;BME280;2247;42.666;23.292;2024-03-02T12:49:12;93851.09;;;14.16;64.31
4469;BME280;2247;42.666;23.292;2024-03-02T12:51:40;93849.84;;;14.22;63.61
4469;BME280;2247;42.666;23.292;2024-03-02T12:54:08;93848.28;;;14.21;63.63
4469;BME280;2247;42.666;23.292;2024-03-02T12:56:35;93856.09;;;14.26;63.80
4469;BME280;2247;42.666;23.292;2024-03-02T12:59:03;93857.31;;;14.20;64.60
4469;BME280;2247;42.666;23.292;2024-03-02T13:01:30;93857.47;;;14.15;64.45
4469;BME280;2247;42.666;23.292;2024-03-02T13:03:58;93864.63;;;14.14;64.93
4469;BME280;2247;42.666;23.292;2024-03-02T13:06:27;93856.63;;;14.06;65.20
4469;BME280;2247;42.666;23.292;2024-03-02T13:08:54;93853.50;;;14.04;64.85
4469;BME280;2247;42.666;23.292;2024-03-02T13:11:22;93856.16;;;14.04;64.95
4469;BME280;2247;42.666;23.292;2024-03-02T13:13:50;93863.16;;;14.00;65.00
4469;BME280;2247;42.666;23.292;2024-03-02T13:16:18;93859.13;;;14.02;65.09
4469;BME280;2247;42.666;23.292;2024-03-02T13:18:45;93858.06;;;14.03;65.44